Terminal Aerodrome Forecast
Issued by NWS Tulsa, OK

Home | Current Version | Previous Version | Text Only | Print | Product List | Glossary On
Versions: 1 2 3 4 5 6 7 8 9 10 11 12 13 14 15 16 17
275
FTUS44 KTSA 290520
TAFTUL
TAF
KTUL 290520Z 2906/3006 18003KT P6SM SKC
     FM291400 18006KT P6SM SCT040 BKN250 PROB30 2917/2923 5SM -TSRA
      BKN040CB
     FM300100 16004KT P6SM BKN250=

USA.gov is the U.S. government's official web portal to all federal, state and local government web resources and services.